createdAt,value
2023-04-18T00:00:26.000Z,277.41
2023-04-18T00:01:53.000Z,277.41
2023-04-18T00:03:59.000Z,277.43
2023-04-18T00:05:26.000Z,277.43
2023-04-18T00:07:32.000Z,277.43
2023-04-18T00:08:59.000Z,277.43
2023-04-18T00:11:05.000Z,277.41
2023-04-18T00:12:31.000Z,277.43
2023-04-18T00:14:38.000Z,277.43
2023-04-18T00:16:04.000Z,277.45
2023-04-18T00:18:10.000Z,277.48
2023-04-18T00:19:37.000Z,277.51
2023-04-18T00:21:43.000Z,277.55
2023-04-18T00:23:09.000Z,277.6
2023-04-18T00:25:18.000Z,277.61
2023-04-18T00:26:45.000Z,277.63
2023-04-18T00:28:51.000Z,277.65
2023-04-18T00:31:42.000Z,277.7
2023-04-18T00:33:08.000Z,277.72
2023-04-18T00:35:14.000Z,277.75
2023-04-18T00:36:41.000Z,277.77
2023-04-18T00:38:47.000Z,277.79
2023-04-18T00:40:13.000Z,277.81
2023-04-18T00:42:20.000Z,277.82
2023-04-18T00:43:46.000Z,277.85
2023-04-18T00:45:52.000Z,277.85
2023-04-18T00:47:19.000Z,277.86
2023-04-18T00:49:25.000Z,277.89
2023-04-18T00:50:51.000Z,277.95
2023-04-18T00:52:57.000Z,277.99
2023-04-18T00:54:24.000Z,278.04
2023-04-18T00:56:30.000Z,278.06
2023-04-18T00:57:57.000Z,278.07
2023-04-18T01:00:03.000Z,278.09
2023-04-18T01:01:29.000Z,278.11
2023-04-18T01:03:35.000Z,278.14
2023-04-18T01:05:02.000Z,278.2
2023-04-18T01:07:08.000Z,278.2
2023-04-18T01:09:59.000Z,278.25
2023-04-18T01:11:26.000Z,278.29
2023-04-18T01:13:32.000Z,278.3
2023-04-18T01:14:58.000Z,278.36
2023-04-18T01:17:04.000Z,278.37
2023-04-18T01:18:31.000Z,278.4
2023-04-18T01:20:37.000Z,278.39
2023-04-18T01:22:03.000Z,278.39
2023-04-18T01:24:10.000Z,278.39
2023-04-18T01:25:36.000Z,278.4
2023-04-18T01:27:42.000Z,278.4
2023-04-18T01:29:09.000Z,278.37
2023-04-18T01:31:15.000Z,278.39
2023-04-18T01:32:41.000Z,278.39
2023-04-18T01:34:48.000Z,278.4
2023-04-18T01:36:14.000Z,278.42
2023-04-18T01:38:20.000Z,278.43
2023-04-18T01:39:47.000Z,278.43
2023-04-18T01:41:53.000Z,278.43
2023-04-18T01:43:20.000Z,278.44
2023-04-18T01:45:26.000Z,278.46
2023-04-18T01:48:17.000Z,278.44
2023-04-18T01:49:43.000Z,278.42
2023-04-18T01:51:49.000Z,278.42
2023-04-18T01:53:16.000Z,278.44
2023-04-18T01:55:22.000Z,278.43
2023-04-18T01:56:48.000Z,278.43
2023-04-18T01:58:55.000Z,278.42
2023-04-18T02:00:21.000Z,278.42
2023-04-18T02:02:27.000Z,278.39
2023-04-18T02:03:54.000Z,278.35
2023-04-18T02:06:00.000Z,278.3
2023-04-18T02:07:27.000Z,278.29
2023-04-18T02:09:33.000Z,278.28
2023-04-18T02:11:00.000Z,278.22
2023-04-18T02:13:06.000Z,278.17
2023-04-18T02:14:32.000Z,278.14
2023-04-18T02:16:38.000Z,278.13
2023-04-18T02:18:05.000Z,278.1
2023-04-18T02:20:11.000Z,278.1
2023-04-18T02:21:38.000Z,278.06
2023-04-18T02:23:44.000Z,278.03
2023-04-18T02:26:35.000Z,278.03
2023-04-18T02:28:01.000Z,278
2023-04-18T02:30:08.000Z,277.99
2023-04-18T02:31:34.000Z,277.97
2023-04-18T02:33:40.000Z,277.99
2023-04-18T02:35:07.000Z,277.96
2023-04-18T02:37:13.000Z,277.96
2023-04-18T02:38:39.000Z,277.95
2023-04-18T02:40:45.000Z,277.95
2023-04-18T02:42:12.000Z,277.97
2023-04-18T02:44:18.000Z,277.97
2023-04-18T02:45:44.000Z,278
2023-04-18T02:47:51.000Z,278.03
2023-04-18T02:49:22.000Z,278.04
2023-04-18T02:51:28.000Z,278.06
2023-04-18T02:52:55.000Z,278.07
2023-04-18T02:55:01.000Z,278.11
2023-04-18T02:56:27.000Z,278.11
2023-04-18T02:58:34.000Z,278.14
2023-04-18T03:00:00.000Z,278.16
2023-04-18T03:02:06.000Z,278.16
2023-04-18T03:04:57.000Z,278.17
2023-04-18T03:06:24.000Z,278.18
2023-04-18T03:08:30.000Z,278.22
2023-04-18T03:09:56.000Z,278.24
2023-04-18T03:12:03.000Z,278.25
2023-04-18T03:13:29.000Z,278.28
2023-04-18T03:15:35.000Z,278.28
2023-04-18T03:17:02.000Z,278.28
2023-04-18T03:19:08.000Z,278.29
2023-04-18T03:20:34.000Z,278.3
2023-04-18T03:22:41.000Z,278.32
2023-04-18T03:24:07.000Z,278.33
2023-04-18T03:26:15.000Z,278.36
2023-04-18T03:27:41.000Z,278.36
2023-04-18T03:29:47.000Z,278.36
2023-04-18T03:31:14.000Z,278.39
2023-04-18T03:33:20.000Z,278.39
2023-04-18T03:34:46.000Z,278.42
2023-04-18T03:36:52.000Z,278.43
2023-04-18T03:38:19.000Z,278.43
2023-04-18T03:40:25.000Z,278.44
2023-04-18T03:43:16.000Z,278.44
2023-04-18T03:44:43.000Z,278.46
2023-04-18T03:46:49.000Z,278.46
2023-04-18T03:48:16.000Z,278.46
2023-04-18T03:50:22.000Z,278.46
2023-04-18T03:51:48.000Z,278.47
2023-04-18T03:53:54.000Z,278.49
2023-04-18T03:55:21.000Z,278.49
2023-04-18T03:57:27.000Z,278.49
2023-04-18T03:58:53.000Z,278.5
2023-04-18T04:00:59.000Z,278.51
2023-04-18T04:02:26.000Z,278.53
2023-04-18T04:04:32.000Z,278.51
2023-04-18T04:05:59.000Z,278.53
2023-04-18T04:08:05.000Z,278.51
2023-04-18T04:09:32.000Z,278.53
2023-04-18T04:11:38.000Z,278.53
2023-04-18T04:13:04.000Z,278.53
2023-04-18T04:15:10.000Z,278.54
2023-04-18T04:16:37.000Z,278.53
2023-04-18T04:18:43.000Z,278.54
2023-04-18T04:21:34.000Z,278.56
2023-04-18T04:23:01.000Z,278.56
2023-04-18T04:25:07.000Z,278.56
2023-04-18T04:26:34.000Z,278.56
2023-04-18T04:28:40.000Z,278.57
2023-04-18T04:30:06.000Z,278.57
2023-04-18T04:32:12.000Z,278.58
2023-04-18T04:33:39.000Z,278.58
2023-04-18T04:35:45.000Z,278.58
2023-04-18T04:37:12.000Z,278.57
2023-04-18T04:39:18.000Z,278.58
2023-04-18T04:40:44.000Z,278.6
2023-04-18T04:42:50.000Z,278.61
2023-04-18T04:44:17.000Z,278.61
2023-04-18T04:46:23.000Z,278.61
2023-04-18T04:47:50.000Z,278.61
2023-04-18T04:49:56.000Z,278.62
2023-04-18T04:51:22.000Z,278.62
2023-04-18T04:53:28.000Z,278.64
2023-04-18T04:54:55.000Z,278.62
2023-04-18T04:57:01.000Z,278.62
2023-04-18T04:59:52.000Z,278.67
2023-04-18T05:01:19.000Z,278.65
2023-04-18T05:03:25.000Z,278.67
2023-04-18T05:04:52.000Z,278.68
2023-04-18T05:06:58.000Z,278.69
2023-04-18T05:08:25.000Z,278.71
2023-04-18T05:10:31.000Z,278.71
2023-04-18T05:11:57.000Z,278.74
2023-04-18T05:14:03.000Z,278.74
2023-04-18T05:15:30.000Z,278.76
2023-04-18T05:17:36.000Z,278.76
2023-04-18T05:19:03.000Z,278.78
2023-04-18T05:21:09.000Z,278.78
2023-04-18T05:22:35.000Z,278.79
2023-04-18T05:24:41.000Z,278.81
2023-04-18T05:26:08.000Z,278.81
2023-04-18T05:28:14.000Z,278.85
2023-04-18T05:29:41.000Z,278.86
2023-04-18T05:31:47.000Z,278.88
2023-04-18T05:33:13.000Z,278.9
2023-04-18T05:35:19.000Z,278.92
2023-04-18T05:38:11.000Z,278.94
2023-04-18T05:39:37.000Z,278.97
2023-04-18T05:41:43.000Z,278.94
2023-04-18T05:43:10.000Z,278.99
2023-04-18T05:45:16.000Z,278.99
2023-04-18T05:46:42.000Z,279.01
2023-04-18T05:48:49.000Z,279.02
2023-04-18T05:50:15.000Z,279.02
2023-04-18T05:52:21.000Z,279.03
2023-04-18T05:53:48.000Z,279.05
2023-04-18T05:55:54.000Z,279.06
2023-04-18T05:57:21.000Z,279.08
2023-04-18T05:59:27.000Z,279.09
2023-04-18T06:00:53.000Z,279.12
2023-04-18T06:02:59.000Z,279.12
2023-04-18T06:04:26.000Z,279.13
2023-04-18T06:06:33.000Z,279.15
2023-04-18T06:07:59.000Z,279.16
2023-04-18T06:10:05.000Z,279.17
2023-04-18T06:11:32.000Z,279.2
2023-04-18T06:13:38.000Z,279.23
2023-04-18T06:16:29.000Z,279.24
2023-04-18T06:17:56.000Z,279.27
2023-04-18T06:20:02.000Z,279.3
2023-04-18T06:21:28.000Z,279.31
2023-04-18T06:23:34.000Z,279.33
2023-04-18T06:25:01.000Z,279.34
2023-04-18T06:27:07.000Z,279.34
2023-04-18T06:28:47.000Z,279.35
2023-04-18T06:30:53.000Z,279.37
2023-04-18T06:32:19.000Z,279.38
2023-04-18T06:34:25.000Z,279.4
2023-04-18T06:35:52.000Z,279.41
2023-04-18T06:37:58.000Z,279.41
2023-04-18T06:39:24.000Z,279.42
2023-04-18T06:41:30.000Z,279.42
2023-04-18T06:42:57.000Z,279.44
2023-04-18T06:45:03.000Z,279.45
2023-04-18T06:46:29.000Z,279.48
2023-04-18T06:48:36.000Z,279.52
2023-04-18T06:50:02.000Z,279.54
2023-04-18T06:52:09.000Z,279.56
2023-04-18T06:55:00.000Z,279.6
2023-04-18T06:56:26.000Z,279.65
2023-04-18T06:58:32.000Z,279.66
2023-04-18T06:59:59.000Z,279.67
2023-04-18T07:02:05.000Z,279.69
2023-04-18T07:03:31.000Z,279.7
2023-04-18T07:05:38.000Z,279.74
2023-04-18T07:07:04.000Z,279.77
2023-04-18T07:09:10.000Z,279.8
2023-04-18T07:10:37.000Z,279.82
2023-04-18T07:12:43.000Z,279.85
2023-04-18T07:14:10.000Z,279.89
2023-04-18T07:16:16.000Z,279.91
2023-04-18T07:17:42.000Z,279.95
2023-04-18T07:19:48.000Z,279.98
2023-04-18T07:21:15.000Z,280.02
2023-04-18T07:23:21.000Z,280.07
2023-04-18T07:24:48.000Z,280.12
2023-04-18T07:26:54.000Z,280.16
2023-04-18T07:28:21.000Z,280.2
2023-04-18T07:30:27.000Z,280.24
2023-04-18T07:33:18.000Z,280.31
2023-04-18T07:34:45.000Z,280.38
2023-04-18T07:36:51.000Z,280.45
2023-04-18T07:38:18.000Z,280.54
2023-04-18T07:40:24.000Z,280.64
2023-04-18T07:41:50.000Z,280.73
2023-04-18T07:43:56.000Z,280.78
2023-04-18T07:45:23.000Z,280.8
2023-04-18T07:47:29.000Z,280.89
2023-04-18T07:48:58.000Z,280.96
2023-04-18T07:51:04.000Z,281
2023-04-18T07:52:30.000Z,281
2023-04-18T07:54:36.000Z,281.03
2023-04-18T07:56:03.000Z,281.03
2023-04-18T07:58:09.000Z,281.07
2023-04-18T07:59:36.000Z,281.12
2023-04-18T08:01:42.000Z,281.18
2023-04-18T08:03:08.000Z,281.25
2023-04-18T08:05:14.000Z,281.3
2023-04-18T08:06:41.000Z,281.32
2023-04-18T08:08:47.000Z,281.35
2023-04-18T08:11:39.000Z,281.51
2023-04-18T08:13:05.000Z,281.65
2023-04-18T08:15:11.000Z,281.72
2023-04-18T08:16:38.000Z,281.84
2023-04-18T08:18:44.000Z,281.95
2023-04-18T08:20:11.000Z,282.03
2023-04-18T08:22:17.000Z,282.05
2023-04-18T08:23:43.000Z,282.06
2023-04-18T08:25:49.000Z,282.09
2023-04-18T08:27:16.000Z,282.13
2023-04-18T08:29:22.000Z,282.13
2023-04-18T08:30:48.000Z,282.14
2023-04-18T08:32:55.000Z,282.16
2023-04-18T08:34:21.000Z,282.2
2023-04-18T08:36:27.000Z,282.24
2023-04-18T08:37:54.000Z,282.31
2023-04-18T08:40:00.000Z,282.39
2023-04-18T08:41:26.000Z,282.43
2023-04-18T08:43:33.000Z,282.45
2023-04-18T08:44:59.000Z,282.46
2023-04-18T08:47:05.000Z,282.45
2023-04-18T08:49:56.000Z,282.46
2023-04-18T08:51:23.000Z,282.5
2023-04-18T08:53:29.000Z,282.54
2023-04-18T08:54:56.000Z,282.57
2023-04-18T08:57:02.000Z,282.63
2023-04-18T08:58:28.000Z,282.7
2023-04-18T09:00:34.000Z,282.73
2023-04-18T09:02:01.000Z,282.75
2023-04-18T09:04:07.000Z,282.78
2023-04-18T09:05:34.000Z,282.88
2023-04-18T09:07:40.000Z,282.92
2023-04-18T09:09:06.000Z,282.99
2023-04-18T09:11:12.000Z,283.03
2023-04-18T09:12:39.000Z,283.02
2023-04-18T09:14:45.000Z,283.06
2023-04-18T09:16:12.000Z,283.07
2023-04-18T09:18:18.000Z,283.14
2023-04-18T09:19:44.000Z,283.18
2023-04-18T09:21:51.000Z,283.25
2023-04-18T09:23:17.000Z,283.27
2023-04-18T09:25:23.000Z,283.3
2023-04-18T09:28:14.000Z,283.27
2023-04-18T09:29:41.000Z,283.27
2023-04-18T09:31:47.000Z,283.29
2023-04-18T09:33:13.000Z,283.29
2023-04-18T09:35:20.000Z,283.3
2023-04-18T09:36:46.000Z,283.3
2023-04-18T09:38:52.000Z,283.3
2023-04-18T09:40:22.000Z,283.29
2023-04-18T09:42:28.000Z,283.26
2023-04-18T09:43:55.000Z,283.29
2023-04-18T09:46:01.000Z,283.32
2023-04-18T09:47:28.000Z,283.37
2023-04-18T09:49:34.000Z,283.4
2023-04-18T09:51:01.000Z,283.48
2023-04-18T09:53:07.000Z,283.47
2023-04-18T09:54:33.000Z,283.47
2023-04-18T09:56:40.000Z,283.45
2023-04-18T09:58:06.000Z,283.51
2023-04-18T10:00:12.000Z,283.55
2023-04-18T10:01:39.000Z,283.59
2023-04-18T10:03:45.000Z,283.69
2023-04-18T10:06:36.000Z,283.82
2023-04-18T10:08:03.000Z,283.84
2023-04-18T10:10:09.000Z,283.9
2023-04-18T10:11:36.000Z,283.98
2023-04-18T10:13:42.000Z,284.08
2023-04-18T10:15:08.000Z,284.05
2023-04-18T10:17:14.000Z,284
2023-04-18T10:18:41.000Z,283.93
2023-04-18T10:20:47.000Z,283.84
2023-04-18T10:22:14.000Z,283.82
2023-04-18T10:24:20.000Z,283.8
2023-04-18T10:25:46.000Z,283.76
2023-04-18T10:27:52.000Z,283.76
2023-04-18T10:29:19.000Z,283.83
2023-04-18T10:31:25.000Z,283.96
2023-04-18T10:32:52.000Z,284.01
2023-04-18T10:34:58.000Z,284.19
2023-04-18T10:36:24.000Z,284.38
2023-04-18T10:38:30.000Z,284.59
2023-04-18T10:39:57.000Z,284.54
2023-04-18T10:42:03.000Z,284.52
2023-04-18T10:44:54.000Z,284.44
2023-04-18T10:46:21.000Z,284.37
2023-04-18T10:48:38.000Z,284.37
2023-04-18T10:50:05.000Z,284.42
2023-04-18T10:52:12.000Z,284.61
2023-04-18T10:53:39.000Z,284.64
2023-04-18T10:55:46.000Z,284.61
2023-04-18T10:57:12.000Z,284.58
2023-04-18T10:59:18.000Z,284.7
2023-04-18T11:00:45.000Z,284.68
2023-04-18T11:02:51.000Z,284.64
2023-04-18T11:04:18.000Z,284.61
2023-04-18T11:06:25.000Z,284.64
2023-04-18T11:07:52.000Z,284.61
2023-04-18T11:09:58.000Z,284.59
2023-04-18T11:11:24.000Z,284.58
2023-04-18T11:13:31.000Z,284.56
2023-04-18T11:14:57.000Z,284.51
2023-04-18T11:17:03.000Z,284.52
2023-04-18T11:18:30.000Z,284.51
2023-04-18T11:20:36.000Z,284.54
2023-04-18T11:23:27.000Z,284.56
2023-04-18T11:24:54.000Z,284.61
2023-04-18T11:27:00.000Z,284.64
2023-04-18T11:28:26.000Z,284.68
2023-04-18T11:30:32.000Z,284.67
2023-04-18T11:31:59.000Z,284.7
2023-04-18T11:34:05.000Z,284.74
2023-04-18T11:35:32.000Z,284.74
2023-04-18T11:37:38.000Z,284.77
2023-04-18T11:39:04.000Z,284.78
2023-04-18T11:41:11.000Z,284.75
2023-04-18T11:42:37.000Z,284.77
2023-04-18T11:44:43.000Z,284.77
2023-04-18T11:46:10.000Z,284.77
2023-04-18T11:48:16.000Z,284.7
2023-04-18T11:49:42.000Z,284.67
2023-04-18T11:51:49.000Z,284.67
2023-04-18T11:53:15.000Z,284.66
2023-04-18T11:55:21.000Z,284.61
2023-04-18T11:56:48.000Z,284.49
2023-04-18T11:58:54.000Z,284.45
2023-04-18T12:01:45.000Z,284.35
2023-04-18T12:03:12.000Z,284.33
2023-04-18T12:05:20.000Z,284.33
2023-04-18T12:06:47.000Z,284.29
2023-04-18T12:08:53.000Z,284.26
2023-04-18T12:10:20.000Z,284.23
2023-04-18T12:12:26.000Z,284.27
2023-04-18T12:13:53.000Z,284.33
2023-04-18T12:15:59.000Z,284.38
2023-04-18T12:17:25.000Z,284.44
2023-04-18T12:19:31.000Z,284.42
2023-04-18T12:20:58.000Z,284.41
2023-04-18T12:23:04.000Z,284.41
2023-04-18T12:24:30.000Z,284.41
2023-04-18T12:26:37.000Z,284.42
2023-04-18T12:28:03.000Z,284.45
2023-04-18T12:30:09.000Z,284.58
2023-04-18T12:31:36.000Z,284.87
2023-04-18T12:33:42.000Z,285.02
2023-04-18T12:35:08.000Z,285.15
2023-04-18T12:37:15.000Z,285.22
2023-04-18T12:40:06.000Z,285.28
2023-04-18T12:41:32.000Z,285.22
2023-04-18T12:43:39.000Z,285.14
2023-04-18T12:45:05.000Z,285.02
2023-04-18T12:47:11.000Z,284.98
2023-04-18T12:48:38.000Z,284.92
2023-04-18T12:50:44.000Z,284.85
2023-04-18T12:52:10.000Z,284.8
2023-04-18T12:54:17.000Z,284.77
2023-04-18T12:55:43.000Z,284.77
2023-04-18T12:57:49.000Z,284.77
2023-04-18T12:59:16.000Z,284.75
2023-04-18T13:01:22.000Z,284.67
2023-04-18T13:02:49.000Z,284.61
2023-04-18T13:04:55.000Z,284.54
2023-04-18T13:06:22.000Z,284.49
2023-04-18T13:08:28.000Z,284.42
2023-04-18T13:09:54.000Z,284.4
2023-04-18T13:12:00.000Z,284.38
2023-04-18T13:13:27.000Z,284.42
2023-04-18T13:15:33.000Z,284.41
2023-04-18T13:18:24.000Z,284.4
2023-04-18T13:19:51.000Z,284.35
2023-04-18T13:21:57.000Z,284.35
2023-04-18T13:23:23.000Z,284.33
2023-04-18T13:25:29.000Z,284.31
2023-04-18T13:26:56.000Z,284.35
2023-04-18T13:29:02.000Z,284.37
2023-04-18T13:30:28.000Z,284.35
2023-04-18T13:32:35.000Z,284.41
2023-04-18T13:34:01.000Z,284.44
2023-04-18T13:36:07.000Z,284.54
2023-04-18T13:37:34.000Z,284.59
2023-04-18T13:39:40.000Z,284.63
2023-04-18T13:41:07.000Z,284.58
2023-04-18T13:43:19.000Z,284.59
2023-04-18T13:44:45.000Z,284.59
2023-04-18T13:46:52.000Z,284.59
2023-04-18T13:48:18.000Z,284.63
2023-04-18T13:50:24.000Z,284.66
2023-04-18T13:51:51.000Z,284.73
2023-04-18T13:53:57.000Z,284.81
2023-04-18T13:56:48.000Z,284.88
2023-04-18T13:58:15.000Z,285.02
2023-04-18T14:00:21.000Z,284.98
2023-04-18T14:01:47.000Z,284.91
2023-04-18T14:03:54.000Z,284.88
2023-04-18T14:05:20.000Z,284.85
2023-04-18T14:07:26.000Z,284.91
2023-04-18T14:08:53.000Z,284.96
2023-04-18T14:10:59.000Z,284.98
2023-04-18T14:12:26.000Z,284.91
2023-04-18T14:14:32.000Z,284.92
2023-04-18T14:15:58.000Z,284.88
2023-04-18T14:18:05.000Z,284.85
2023-04-18T14:19:31.000Z,284.82
2023-04-18T14:21:37.000Z,284.78
2023-04-18T14:23:04.000Z,284.75
2023-04-18T14:25:10.000Z,284.74
2023-04-18T14:26:36.000Z,284.73
2023-04-18T14:28:43.000Z,284.75
2023-04-18T14:30:09.000Z,284.98
2023-04-18T14:32:15.000Z,285.03
2023-04-18T14:35:07.000Z,285.05
2023-04-18T14:36:33.000Z,285.02
2023-04-18T14:38:39.000Z,284.96
2023-04-18T14:40:06.000Z,284.91
2023-04-18T14:42:12.000Z,284.89
2023-04-18T14:43:38.000Z,284.82
2023-04-18T14:45:45.000Z,284.91
2023-04-18T14:47:11.000Z,285.06
2023-04-18T14:49:17.000Z,285.06
2023-04-18T14:50:44.000Z,285.03
2023-04-18T14:52:50.000Z,285.03
2023-04-18T14:54:17.000Z,285.02
2023-04-18T14:56:23.000Z,285.02
2023-04-18T14:57:49.000Z,284.95
2023-04-18T14:59:55.000Z,284.89
2023-04-18T15:01:22.000Z,284.87
2023-04-18T15:03:28.000Z,284.85
2023-04-18T15:04:55.000Z,284.8
2023-04-18T15:07:01.000Z,284.77
2023-04-18T15:08:28.000Z,284.7
2023-04-18T15:10:34.000Z,284.64
2023-04-18T15:13:25.000Z,284.56
2023-04-18T15:14:51.000Z,284.55
2023-04-18T15:16:57.000Z,284.51
2023-04-18T15:18:24.000Z,284.44
2023-04-18T15:20:30.000Z,284.4
2023-04-18T15:21:57.000Z,284.37
2023-04-18T15:24:03.000Z,284.31
2023-04-18T15:25:29.000Z,284.33
2023-04-18T15:27:35.000Z,284.34
2023-04-18T15:29:02.000Z,284.33
2023-04-18T15:31:08.000Z,284.31
2023-04-18T15:32:34.000Z,284.3
2023-04-18T15:34:40.000Z,284.27
2023-04-18T15:36:07.000Z,284.26
2023-04-18T15:38:13.000Z,284.27
2023-04-18T15:39:39.000Z,284.33
2023-04-18T15:41:46.000Z,284.33
2023-04-18T15:43:12.000Z,284.33
2023-04-18T15:45:18.000Z,284.33
2023-04-18T15:46:45.000Z,284.29
2023-04-18T15:48:51.000Z,284.29
2023-04-18T15:51:42.000Z,284.22
2023-04-18T15:53:08.000Z,284.2
2023-04-18T15:55:14.000Z,284.19
2023-04-18T15:56:41.000Z,284.17
2023-04-18T15:58:47.000Z,284.17
2023-04-18T16:00:14.000Z,284.11
2023-04-18T16:02:20.000Z,284.05
2023-04-18T16:03:46.000Z,284.01
2023-04-18T16:05:53.000Z,283.94
2023-04-18T16:07:19.000Z,283.9
2023-04-18T16:09:25.000Z,283.87
2023-04-18T16:10:52.000Z,283.84
2023-04-18T16:12:58.000Z,283.83
2023-04-18T16:14:24.000Z,283.77
2023-04-18T16:16:30.000Z,283.73
2023-04-18T16:17:57.000Z,283.72
2023-04-18T16:20:03.000Z,283.7
2023-04-18T16:21:30.000Z,283.69
2023-04-18T16:23:36.000Z,283.7
2023-04-18T16:25:02.000Z,283.7
2023-04-18T16:27:09.000Z,283.72
2023-04-18T16:30:00.000Z,283.69
2023-04-18T16:31:26.000Z,283.69
2023-04-18T16:33:32.000Z,283.68
2023-04-18T16:34:59.000Z,283.66
2023-04-18T16:37:05.000Z,283.65
2023-04-18T16:38:32.000Z,283.62
2023-04-18T16:40:38.000Z,283.59
2023-04-18T16:42:04.000Z,283.58
2023-04-18T16:44:11.000Z,283.57
2023-04-18T16:45:37.000Z,283.54
2023-04-18T16:47:43.000Z,283.52
2023-04-18T16:49:10.000Z,283.5
2023-04-18T16:51:16.000Z,283.47
2023-04-18T16:52:43.000Z,283.45
2023-04-18T16:54:49.000Z,283.45
2023-04-18T16:56:18.000Z,283.44
2023-04-18T16:58:25.000Z,283.41
2023-04-18T16:59:51.000Z,283.41
2023-04-18T17:01:57.000Z,283.4
2023-04-18T17:03:24.000Z,283.37
2023-04-18T17:05:30.000Z,283.37
2023-04-18T17:08:21.000Z,283.34
2023-04-18T17:09:47.000Z,283.32
2023-04-18T17:11:53.000Z,283.3
2023-04-18T17:13:20.000Z,283.29
2023-04-18T17:15:26.000Z,283.29
2023-04-18T17:16:53.000Z,283.26
2023-04-18T17:18:59.000Z,283.26
2023-04-18T17:20:26.000Z,283.25
2023-04-18T17:22:32.000Z,283.25
2023-04-18T17:23:58.000Z,283.23
2023-04-18T17:26:05.000Z,283.22
2023-04-18T17:27:31.000Z,283.18
2023-04-18T17:29:37.000Z,283.16
2023-04-18T17:31:04.000Z,283.16
2023-04-18T17:33:10.000Z,283.14
2023-04-18T17:34:37.000Z,283.14
2023-04-18T17:36:43.000Z,283.11
2023-04-18T17:38:09.000Z,283.13
2023-04-18T17:40:15.000Z,283.1
2023-04-18T17:41:42.000Z,283.1
2023-04-18T17:43:48.000Z,283.09
2023-04-18T17:46:39.000Z,283.07
2023-04-18T17:48:06.000Z,283.07
2023-04-18T17:50:12.000Z,283.06
2023-04-18T17:51:38.000Z,283.05
2023-04-18T17:53:45.000Z,283.05
2023-04-18T17:55:12.000Z,283.02
2023-04-18T17:57:18.000Z,283
2023-04-18T17:58:44.000Z,282.99
2023-04-18T18:00:50.000Z,282.96
2023-04-18T18:02:17.000Z,282.95
2023-04-18T18:04:23.000Z,282.92
2023-04-18T18:05:53.000Z,282.92
2023-04-18T18:07:59.000Z,282.92
2023-04-18T18:09:26.000Z,282.89
2023-04-18T18:11:32.000Z,282.88
2023-04-18T18:12:58.000Z,282.86
2023-04-18T18:15:04.000Z,282.84
2023-04-18T18:16:31.000Z,282.85
2023-04-18T18:18:37.000Z,282.84
2023-04-18T18:20:03.000Z,282.81
2023-04-18T18:22:10.000Z,282.81
2023-04-18T18:25:00.000Z,282.79
2023-04-18T18:26:27.000Z,282.78
2023-04-18T18:28:33.000Z,282.78
2023-04-18T18:30:00.000Z,282.77
2023-04-18T18:32:06.000Z,282.75
2023-04-18T18:33:32.000Z,282.74
2023-04-18T18:35:38.000Z,282.73
2023-04-18T18:37:05.000Z,282.73
2023-04-18T18:39:11.000Z,282.71
2023-04-18T18:40:38.000Z,282.7
2023-04-18T18:42:44.000Z,282.68
2023-04-18T18:44:10.000Z,282.68
2023-04-18T18:46:16.000Z,282.67
2023-04-18T18:47:43.000Z,282.66
2023-04-18T18:49:49.000Z,282.64
2023-04-18T18:51:16.000Z,282.63
2023-04-18T18:53:22.000Z,282.63
2023-04-18T18:54:48.000Z,282.61
2023-04-18T18:56:54.000Z,282.6
2023-04-18T18:58:21.000Z,282.59
2023-04-18T19:00:27.000Z,282.57
2023-04-18T19:03:18.000Z,282.57
2023-04-18T19:04:45.000Z,282.54
2023-04-18T19:06:52.000Z,282.53
2023-04-18T19:08:18.000Z,282.53
2023-04-18T19:10:24.000Z,282.52
2023-04-18T19:11:51.000Z,282.5
2023-04-18T19:13:57.000Z,282.5
2023-04-18T19:15:24.000Z,282.49
2023-04-18T19:17:30.000Z,282.46
2023-04-18T19:18:57.000Z,282.46
2023-04-18T19:21:03.000Z,282.45
2023-04-18T19:22:29.000Z,282.45
2023-04-18T19:24:35.000Z,282.43
2023-04-18T19:26:02.000Z,282.42
2023-04-18T19:28:08.000Z,282.42
2023-04-18T19:29:34.000Z,282.41
2023-04-18T19:31:40.000Z,282.39
2023-04-18T19:33:07.000Z,282.39
2023-04-18T19:35:13.000Z,282.39
2023-04-18T19:36:40.000Z,282.38
2023-04-18T19:38:46.000Z,282.38
2023-04-18T19:41:37.000Z,282.36
2023-04-18T19:43:04.000Z,282.35
2023-04-18T19:45:10.000Z,282.34
2023-04-18T19:46:36.000Z,282.34
2023-04-18T19:48:43.000Z,282.34
2023-04-18T19:50:09.000Z,282.34
2023-04-18T19:52:15.000Z,282.31
2023-04-18T19:53:42.000Z,282.3
2023-04-18T19:55:48.000Z,282.31
2023-04-18T19:57:14.000Z,282.3
2023-04-18T19:59:21.000Z,282.3
2023-04-18T20:00:47.000Z,282.3
2023-04-18T20:02:53.000Z,282.31
2023-04-18T20:04:20.000Z,282.28
2023-04-18T20:06:26.000Z,282.28
2023-04-18T20:07:53.000Z,282.28
2023-04-18T20:09:59.000Z,282.28
2023-04-18T20:11:26.000Z,282.28
2023-04-18T20:13:32.000Z,282.28
2023-04-18T20:14:58.000Z,282.27
2023-04-18T20:17:04.000Z,282.27
2023-04-18T20:19:56.000Z,282.28
2023-04-18T20:21:22.000Z,282.26
2023-04-18T20:23:28.000Z,282.26
2023-04-18T20:24:55.000Z,282.24
2023-04-18T20:27:01.000Z,282.24
2023-04-18T20:28:27.000Z,282.23
2023-04-18T20:30:34.000Z,282.21
2023-04-18T20:32:00.000Z,282.23
2023-04-18T20:34:06.000Z,282.21
2023-04-18T20:35:33.000Z,282.2
2023-04-18T20:37:39.000Z,282.2
2023-04-18T20:39:05.000Z,282.21
2023-04-18T20:41:11.000Z,282.19
2023-04-18T20:42:38.000Z,282.19
2023-04-18T20:44:44.000Z,282.17
2023-04-18T20:46:11.000Z,282.17
2023-04-18T20:48:17.000Z,282.17
2023-04-18T20:49:43.000Z,282.17
2023-04-18T20:51:49.000Z,282.17
2023-04-18T20:53:16.000Z,282.16
2023-04-18T20:55:22.000Z,282.16
2023-04-18T20:58:13.000Z,282.16
2023-04-18T20:59:40.000Z,282.14
2023-04-18T21:01:46.000Z,282.16
2023-04-18T21:03:12.000Z,282.14
2023-04-18T21:05:19.000Z,282.14
2023-04-18T21:06:45.000Z,282.13
2023-04-18T21:08:51.000Z,282.14
2023-04-18T21:10:18.000Z,282.14
2023-04-18T21:12:24.000Z,282.13
2023-04-18T21:13:50.000Z,282.12
2023-04-18T21:15:57.000Z,282.12
2023-04-18T21:17:23.000Z,282.12
2023-04-18T21:19:29.000Z,282.12
2023-04-18T21:20:56.000Z,282.1
2023-04-18T21:23:02.000Z,282.1
2023-04-18T21:24:28.000Z,282.09
2023-04-18T21:26:34.000Z,282.09
2023-04-18T21:28:01.000Z,282.09
2023-04-18T21:30:07.000Z,282.09
2023-04-18T21:31:34.000Z,282.09
2023-04-18T21:33:40.000Z,282.08
2023-04-18T21:36:31.000Z,282.08
2023-04-18T21:37:58.000Z,282.06
2023-04-18T21:40:04.000Z,282.06
2023-04-18T21:41:30.000Z,282.08
2023-04-18T21:43:36.000Z,282.06
2023-04-18T21:45:03.000Z,282.06
2023-04-18T21:47:09.000Z,282.05
2023-04-18T21:48:36.000Z,282.05
2023-04-18T21:50:42.000Z,282.03
2023-04-18T21:52:08.000Z,282.03
2023-04-18T21:54:14.000Z,282.02
2023-04-18T21:55:41.000Z,282.03
2023-04-18T21:57:47.000Z,282.03
2023-04-18T21:59:14.000Z,282.02
2023-04-18T22:01:20.000Z,282.03
2023-04-18T22:02:46.000Z,282.02
2023-04-18T22:04:53.000Z,282.02
2023-04-18T22:06:19.000Z,282.01
2023-04-18T22:08:25.000Z,282.01
2023-04-18T22:09:52.000Z,282.01
2023-04-18T22:11:58.000Z,281.99
2023-04-18T22:14:49.000Z,281.99
2023-04-18T22:16:15.000Z,281.99
2023-04-18T22:18:22.000Z,281.99
2023-04-18T22:19:48.000Z,281.99
2023-04-18T22:21:54.000Z,281.99
2023-04-18T22:23:21.000Z,281.98
2023-04-18T22:25:27.000Z,281.98
2023-04-18T22:26:53.000Z,281.98
2023-04-18T22:28:59.000Z,281.98
2023-04-18T22:30:26.000Z,281.96
2023-04-18T22:32:32.000Z,281.96
2023-04-18T22:33:59.000Z,281.95
2023-04-18T22:36:05.000Z,281.95
2023-04-18T22:37:31.000Z,281.94
2023-04-18T22:39:37.000Z,281.94
2023-04-18T22:41:04.000Z,281.95
2023-04-18T22:43:10.000Z,281.94
2023-04-18T22:44:37.000Z,281.92
2023-04-18T22:46:43.000Z,281.92
2023-04-18T22:48:09.000Z,281.92
2023-04-18T22:50:16.000Z,281.91